createdAt,value
2022-12-19T00:00:09.742Z,-7.60
2022-12-19T00:15:17.032Z,-7.70
2022-12-19T00:30:19.125Z,-7.60
2022-12-19T00:45:22.127Z,-8.00
2022-12-19T01:00:24.001Z,-7.90
2022-12-19T01:15:26.027Z,-8.10
2022-12-19T01:30:30.132Z,-8.00
2022-12-19T01:45:36.600Z,-8.00
2022-12-19T02:00:43.492Z,-7.90
2022-12-19T02:16:13.378Z,-8.10
2022-12-19T02:31:21.730Z,-8.00
2022-12-19T02:46:24.975Z,-8.00
2022-12-19T03:01:27.869Z,-7.80
2022-12-19T03:16:30.083Z,-7.90
2022-12-19T03:31:33.776Z,-8.00
2022-12-19T03:46:41.487Z,-8.00
2022-12-19T04:01:45.119Z,-8.00
2022-12-19T04:17:22.277Z,-7.90
2022-12-19T04:32:25.435Z,-7.90
2022-12-19T04:47:27.660Z,-7.70
2022-12-19T05:02:30.135Z,-7.70
2022-12-19T05:17:32.274Z,-7.80
2022-12-19T05:32:34.942Z,-7.70
2022-12-19T05:47:38.128Z,-7.70
2022-12-19T06:02:40.633Z,-7.60
2022-12-19T06:17:42.636Z,-7.60
2022-12-19T06:32:44.587Z,-7.40
2022-12-19T06:47:46.455Z,-7.30
2022-12-19T07:02:51.784Z,-7.30
2022-12-19T07:17:54.053Z,-7.00
2022-12-19T07:32:56.083Z,-6.70
2022-12-19T07:48:01.888Z,-6.50
2022-12-19T08:03:04.265Z,-6.10
2022-12-19T08:18:06.268Z,-5.50
2022-12-19T08:33:08.689Z,-4.80
2022-12-19T08:48:10.725Z,-3.50
2022-12-19T09:03:12.912Z,-3.80
2022-12-19T09:18:15.600Z,-3.90
2022-12-19T09:33:17.593Z,-1.90
2022-12-19T09:48:24.186Z,-2.20
2022-12-19T10:03:40.920Z,-1.40
2022-12-19T10:19:14.873Z,-1.10
2022-12-19T10:34:38.501Z,-0.80
2022-12-19T10:49:43.144Z,-0.50
2022-12-19T11:04:48.321Z,-0.20
2022-12-19T11:29:41.965Z,0.20
2022-12-19T11:35:24.447Z,0.80
2022-12-19T11:50:33.041Z,1.20
2022-12-19T12:05:49.426Z,1.80
2022-12-19T12:31:07.375Z,1.70
2022-12-19T12:38:13.723Z,1.90
2022-12-19T12:52:43.622Z,1.90
2022-12-19T13:07:55.609Z,1.80
2022-12-19T13:23:00.440Z,1.80
2022-12-19T13:39:54.296Z,1.60
2022-12-19T13:53:59.523Z,1.50
2022-12-19T14:11:26.723Z,1.20
2022-12-19T14:25:32.100Z,1.00
2022-12-19T14:40:33.996Z,0.90
2022-12-19T15:14:55.046Z,0.90
2022-12-19T15:27:28.994Z,0.70
2022-12-19T15:42:32.221Z,0.70
2022-12-19T15:57:40.913Z,0.60
2022-12-19T16:12:46.223Z,0.70
2022-12-19T16:27:56.088Z,0.80
2022-12-19T16:43:05.055Z,0.80
2022-12-19T16:58:10.062Z,0.90
2022-12-19T17:13:14.559Z,1.10
2022-12-19T17:28:17.506Z,1.20
2022-12-19T17:43:19.416Z,1.30
2022-12-19T17:58:21.969Z,1.40
2022-12-19T18:13:25.858Z,1.50
2022-12-19T18:28:27.823Z,1.50
2022-12-19T18:43:31.265Z,1.40
2022-12-19T18:58:33.580Z,1.40
2022-12-19T19:13:35.693Z,1.50
2022-12-19T19:28:39.031Z,1.60
2022-12-19T19:43:41.442Z,1.70
2022-12-19T19:58:43.552Z,1.80
2022-12-19T20:13:45.591Z,2.00
2022-12-19T20:28:50.286Z,2.00
2022-12-19T20:43:53.172Z,2.00
2022-12-19T20:58:55.184Z,2.10
2022-12-19T21:13:57.374Z,2.00
2022-12-19T21:28:59.607Z,2.10
2022-12-19T21:44:01.572Z,2.10
2022-12-19T21:59:10.928Z,2.10
2022-12-19T22:14:17.188Z,2.10
2022-12-19T22:29:19.203Z,1.90
2022-12-19T22:44:23.898Z,1.90
2022-12-19T22:59:25.895Z,1.90
2022-12-19T23:14:27.859Z,1.90
2022-12-19T23:29:29.802Z,2.00
2022-12-19T23:44:31.692Z,2.10
2022-12-19T23:59:33.627Z,2.20
